Time,TemperatureF,DewpointF,PressureIn,WindDirection,WindDirectionDegrees,WindSpeedMPH,WindSpeedGustMPH,Humidity,HourlyPrecipIn,Conditions,Clouds,dailyrainin,SoftwareType,DateUTC
2013-11-08 00:00:00,54.1,52.7,30.07,South,186,3.0,9.0,95,0.00,,,0.00,meteohub,2013-11-08 08:00:00,
2013-11-08 00:05:00,54.1,52.7,30.07,South,185,4.0,9.0,95,0.00,,,0.00,meteohub,2013-11-08 08:05:00,
2013-11-08 00:10:00,54.0,52.5,30.07,SSW,194,1.0,9.0,95,0.00,,,0.00,meteohub,2013-11-08 08:10:00,
2013-11-08 00:15:00,53.8,52.3,30.07,SW,227,1.0,7.0,95,0.00,,,0.00,meteohub,2013-11-08 08:15:00,
2013-11-08 00:20:00,53.8,52.3,30.07,SW,222,0.0,8.0,95,0.00,,,0.00,meteohub,2013-11-08 08:20:00,
2013-11-08 00:25:00,53.6,52.2,30.07,SW,225,4.0,8.0,95,0.00,,,0.00,meteohub,2013-11-08 08:25:00,
2013-11-08 00:30:00,53.4,52.0,30.07,SSW,203,0.0,8.0,95,0.00,,,0.00,meteohub,2013-11-08 08:30:00,
2013-11-08 00:35:00,53.4,52.0,30.07,SW,225,2.0,7.0,95,0.00,,,0.00,meteohub,2013-11-08 08:35:00,
2013-11-08 00:40:00,53.2,51.8,30.07,West,267,0.0,7.0,95,0.00,,,0.00,meteohub,2013-11-08 08:40:00,
2013-11-08 00:45:00,53.1,51.6,30.07,SW,217,0.0,7.0,95,0.00,,,0.00,meteohub,2013-11-08 08:45:00,
2013-11-08 00:50:00,53.1,52.0,30.07,SW,226,1.0,6.0,96,0.00,,,0.00,meteohub,2013-11-08 08:50:00,
2013-11-08 00:55:00,53.1,52.0,30.07,SW,225,2.0,6.0,96,0.00,,,0.00,meteohub,2013-11-08 08:55:00,
2013-11-08 01:01:00,53.1,52.0,30.07,WSW,252,1.0,7.0,96,0.00,,,0.00,meteohub,2013-11-08 09:01:00,
2013-11-08 01:06:00,52.9,51.8,30.07,South,176,4.0,7.0,96,0.00,,,0.00,meteohub,2013-11-08 09:06:00,
2013-11-08 01:11:00,52.7,51.6,30.07,SW,218,1.0,7.0,96,0.00,,,0.00,meteohub,2013-11-08 09:11:00,
2013-11-08 01:16:00,52.7,51.6,30.07,SW,221,2.0,7.0,96,0.00,,,0.00,meteohub,2013-11-08 09:16:00,
2013-11-08 01:21:00,52.5,51.4,30.07,WSW,252,1.0,6.0,96,0.00,,,0.00,meteohub,2013-11-08 09:21:00,
2013-11-08 01:26:00,52.7,51.6,30.08,SW,225,1.0,5.0,96,0.00,,,0.00,meteohub,2013-11-08 09:26:00,
2013-11-08 01:31:00,52.7,51.6,30.07,SSE,164,0.0,5.0,96,0.00,,,0.00,meteohub,2013-11-08 09:31:00,
2013-11-08 01:36:00,52.5,51.4,30.07,WSW,246,1.0,7.0,96,0.00,,,0.00,meteohub,2013-11-08 09:36:00,
2013-11-08 01:41:00,52.5,51.6,30.07,SW,235,0.0,7.0,97,0.00,,,0.00,meteohub,2013-11-08 09:41:00,
2013-11-08 01:46:00,52.5,51.6,30.07,SSW,197,0.0,7.0,97,0.00,,,0.00,meteohub,2013-11-08 09:46:00,
2013-11-08 01:51:00,52.3,51.3,30.07,SSW,204,1.0,5.0,96,0.00,,,0.00,meteohub,2013-11-08 09:51:00,
2013-11-08 01:56:00,52.2,51.1,30.07,SSW,212,0.0,5.0,96,0.00,,,0.00,meteohub,2013-11-08 09:56:00,
2013-11-08 02:01:00,52.2,51.3,30.07,SSW,211,0.0,5.0,97,0.00,,,0.00,meteohub,2013-11-08 10:01:00,
2013-11-08 02:06:00,52.2,51.3,30.07,SW,214,0.0,4.0,97,0.00,,,0.00,meteohub,2013-11-08 10:06:00,
2013-11-08 02:11:00,52.3,51.4,30.07,SSW,213,0.0,2.0,97,0.00,,,0.00,meteohub,2013-11-08 10:11:00,
2013-11-08 02:16:00,52.2,51.3,30.07,SSW,212,0.0,2.0,97,0.00,,,0.00,meteohub,2013-11-08 10:16:00,
2013-11-08 02:21:00,52.2,51.3,30.07,SW,214,0.0,2.0,97,0.00,,,0.00,meteohub,2013-11-08 10:21:00,
2013-11-08 02:26:00,52.0,51.1,30.07,WSW,256,0.0,2.0,97,0.00,,,0.00,meteohub,2013-11-08 10:26:00,
2013-11-08 02:31:00,52.0,51.1,30.07,WNW,283,0.0,2.0,97,0.00,,,0.00,meteohub,2013-11-08 10:31:00,
2013-11-08 02:36:00,52.0,51.1,30.07,SW,220,2.0,2.0,97,0.00,,,0.00,meteohub,2013-11-08 10:36:00,
2013-11-08 02:41:00,52.0,51.1,30.07,SW,229,0.0,3.0,97,0.00,,,0.00,meteohub,2013-11-08 10:41:00,
2013-11-08 02:46:00,52.0,51.1,30.06,SW,233,0.0,3.0,97,0.00,,,0.00,meteohub,2013-11-08 10:46:00,
2013-11-08 02:51:00,52.0,51.1,30.06,SW,235,0.0,3.0,97,0.00,,,0.00,meteohub,2013-11-08 10:51:00,
2013-11-08 02:56:00,51.8,50.9,30.06,South,176,0.0,2.0,97,0.00,,,0.00,meteohub,2013-11-08 10:56:00,
2013-11-08 03:01:00,51.8,50.9,30.06,South,176,0.0,2.0,97,0.00,,,0.00,meteohub,2013-11-08 11:01:00,
2013-11-08 03:06:00,52.0,51.1,30.06,WSW,249,0.0,2.0,97,0.00,,,0.00,meteohub,2013-11-08 11:06:00,
2013-11-08 03:11:00,52.0,51.1,30.07,WSW,247,0.0,2.0,97,0.00,,,0.00,meteohub,2013-11-08 11:11:00,
2013-11-08 03:16:00,52.2,51.3,30.06,South,176,0.0,2.0,97,0.00,,,0.00,meteohub,2013-11-08 11:16:00,
2013-11-08 03:21:00,52.0,51.1,30.06,WSW,244,0.0,2.0,97,0.00,,,0.00,meteohub,2013-11-08 11:21:00,
2013-11-08 03:26:00,52.0,51.1,30.06,South,176,0.0,2.0,97,0.00,,,0.00,meteohub,2013-11-08 11:26:00,
2013-11-08 03:31:00,51.8,50.9,30.06,South,176,0.0,1.0,97,0.00,,,0.00,meteohub,2013-11-08 11:31:00,
2013-11-08 03:36:00,51.6,50.7,30.06,WSW,250,0.0,0.0,97,0.00,,,0.00,meteohub,2013-11-08 11:36:00,
2013-11-08 03:41:00,51.6,50.7,30.06,South,176,0.0,0.0,97,0.00,,,0.00,meteohub,2013-11-08 11:41:00,
2013-11-08 03:46:00,51.6,50.7,30.06,WSW,250,0.0,0.0,97,0.00,,,0.00,meteohub,2013-11-08 11:46:00,
2013-11-08 03:51:00,51.4,50.5,30.06,South,176,0.0,0.0,97,0.00,,,0.00,meteohub,2013-11-08 11:51:00,
2013-11-08 03:56:00,51.4,50.5,30.06,South,176,0.0,0.0,97,0.00,,,0.00,meteohub,2013-11-08 11:56:00,
2013-11-08 04:01:00,51.4,50.5,30.05,South,186,0.0,0.0,97,0.00,,,0.00,meteohub,2013-11-08 12:01:00,
2013-11-08 04:07:00,51.3,50.4,30.05,South,186,0.0,0.0,97,0.00,,,0.00,meteohub,2013-11-08 12:07:00,
2013-11-08 04:12:00,51.3,50.4,30.05,South,186,0.0,0.0,97,0.00,,,0.00,meteohub,2013-11-08 12:12:00,
2013-11-08 04:17:00,51.1,50.2,30.05,South,186,0.0,0.0,97,0.00,,,0.00,meteohub,2013-11-08 12:17:00,
2013-11-08 04:22:00,51.1,50.2,30.05,South,186,0.0,0.0,97,0.00,,,0.00,meteohub,2013-11-08 12:22:00,
2013-11-08 04:27:00,51.1,50.2,30.05,South,186,0.0,0.0,97,0.00,,,0.00,meteohub,2013-11-08 12:27:00,
2013-11-08 04:32:00,50.9,50.0,30.05,South,186,0.0,0.0,97,0.00,,,0.00,meteohub,2013-11-08 12:32:00,
2013-11-08 04:37:00,50.7,49.8,30.05,South,187,0.0,0.0,97,0.00,,,0.00,meteohub,2013-11-08 12:37:00,
2013-11-08 04:42:00,50.7,49.8,30.05,South,187,0.0,0.0,97,0.00,,,0.00,meteohub,2013-11-08 12:42:00,
2013-11-08 04:47:00,50.5,49.6,30.05,South,187,0.0,0.0,97,0.00,,,0.00,meteohub,2013-11-08 12:47:00,
2013-11-08 04:52:00,50.5,49.6,30.05,South,186,0.0,0.0,97,0.00,,,0.00,meteohub,2013-11-08 12:52:00,
2013-11-08 04:57:00,50.4,49.5,30.05,South,186,0.0,0.0,97,0.00,,,0.00,meteohub,2013-11-08 12:57:00,
2013-11-08 05:02:00,50.4,49.5,30.05,South,186,0.0,0.0,97,0.00,,,0.00,meteohub,2013-11-08 13:02:00,
2013-11-08 05:07:00,50.4,49.5,30.05,South,187,0.0,0.0,97,0.00,,,0.00,meteohub,2013-11-08 13:07:00,
2013-11-08 05:12:00,50.4,49.5,30.05,South,186,0.0,0.0,97,0.00,,,0.00,meteohub,2013-11-08 13:12:00,
2013-11-08 05:17:00,50.4,49.5,30.05,South,176,1.0,0.0,97,0.00,,,0.00,meteohub,2013-11-08 13:17:00,
2013-11-08 05:22:00,50.5,50.0,30.04,East,97,3.0,3.0,98,0.00,,,0.00,meteohub,2013-11-08 13:22:00,
2013-11-08 05:27:00,50.7,50.2,30.04,South,176,0.0,5.0,98,0.00,,,0.00,meteohub,2013-11-08 13:27:00,
2013-11-08 05:32:00,50.7,50.2,30.04,South,176,0.0,5.0,98,0.00,,,0.00,meteohub,2013-11-08 13:32:00,
2013-11-08 05:37:00,50.7,50.2,30.04,ENE,73,0.0,4.0,98,0.00,,,0.00,meteohub,2013-11-08 13:37:00,
2013-11-08 05:42:00,50.7,49.8,30.04,ENE,74,0.0,4.0,97,0.00,,,0.00,meteohub,2013-11-08 13:42:00,
2013-11-08 05:47:00,50.7,49.8,30.05,ENE,70,0.0,4.0,97,0.00,,,0.00,meteohub,2013-11-08 13:47:00,
2013-11-08 05:52:00,50.7,49.8,30.05,ENE,69,1.0,4.0,97,0.00,,,0.00,meteohub,2013-11-08 13:52:00,
2013-11-08 05:57:00,50.5,49.6,30.05,South,176,1.0,4.0,97,0.00,,,0.00,meteohub,2013-11-08 13:57:00,
2013-11-08 06:02:00,50.7,50.2,30.05,South,176,1.0,4.0,98,0.00,,,0.00,meteohub,2013-11-08 14:02:00,
2013-11-08 06:07:00,50.7,50.2,30.05,ENE,65,1.0,4.0,98,0.00,,,0.00,meteohub,2013-11-08 14:07:00,
2013-11-08 06:12:00,50.7,49.8,30.05,ENE,78,2.0,4.0,97,0.00,,,0.00,meteohub,2013-11-08 14:12:00,
2013-11-08 06:17:00,50.7,49.8,30.05,ENE,68,4.0,5.0,97,0.00,,,0.00,meteohub,2013-11-08 14:17:00,
2013-11-08 06:22:00,50.5,49.6,30.05,South,176,0.0,6.0,97,0.00,,,0.00,meteohub,2013-11-08 14:22:00,
2013-11-08 06:27:00,50.4,49.5,30.05,South,176,0.0,6.0,97,0.00,,,0.00,meteohub,2013-11-08 14:27:00,
2013-11-08 06:32:00,50.2,49.3,30.05,South,176,0.0,6.0,97,0.00,,,0.00,meteohub,2013-11-08 14:32:00,
2013-11-08 06:37:00,50.2,49.3,30.05,ENE,75,1.0,5.0,97,0.00,,,0.00,meteohub,2013-11-08 14:37:00,
2013-11-08 06:42:00,50.4,49.8,30.05,ENE,72,2.0,7.0,98,0.00,,,0.00,meteohub,2013-11-08 14:42:00,
2013-11-08 06:47:00,50.5,50.0,30.05,East,85,3.0,7.0,98,0.00,,,0.00,meteohub,2013-11-08 14:47:00,
2013-11-08 06:52:00,50.9,50.4,30.05,South,176,4.0,7.0,98,0.00,,,0.00,meteohub,2013-11-08 14:52:00,
2013-11-08 06:57:00,51.1,50.5,30.06,ENE,75,3.0,5.0,98,0.00,,,0.00,meteohub,2013-11-08 14:57:00,
2013-11-08 07:02:00,51.3,50.7,30.06,South,176,1.0,5.0,98,0.00,,,0.00,meteohub,2013-11-08 15:02:00,
2013-11-08 07:07:00,51.3,50.7,30.06,ENE,72,4.0,5.0,98,0.00,,,0.00,meteohub,2013-11-08 15:07:00,
2013-11-08 07:12:00,51.4,50.9,30.06,ENE,74,2.0,5.0,98,0.00,,,0.00,meteohub,2013-11-08 15:12:00,
2013-11-08 07:17:00,51.4,50.9,30.06,South,176,2.0,5.0,98,0.00,,,0.00,meteohub,2013-11-08 15:17:00,
2013-11-08 07:22:00,51.4,50.9,30.06,South,176,4.0,5.0,98,0.00,,,0.00,meteohub,2013-11-08 15:22:00,
2013-11-08 07:27:00,51.4,50.9,30.06,ENE,75,3.0,5.0,98,0.00,,,0.00,meteohub,2013-11-08 15:27:00,
2013-11-08 07:32:00,51.4,50.9,30.06,ENE,76,0.0,5.0,98,0.00,,,0.00,meteohub,2013-11-08 15:32:00,
2013-11-08 07:37:00,51.6,51.1,30.06,South,176,1.0,5.0,98,0.00,,,0.00,meteohub,2013-11-08 15:37:00,
2013-11-08 07:42:00,51.6,51.1,30.06,ENE,65,2.0,6.0,98,0.00,,,0.00,meteohub,2013-11-08 15:42:00,
2013-11-08 07:47:00,51.6,51.1,30.06,South,176,3.0,6.0,98,0.00,,,0.00,meteohub,2013-11-08 15:47:00,
2013-11-08 07:52:00,51.8,51.3,30.06,South,176,1.0,6.0,98,0.00,,,0.00,meteohub,2013-11-08 15:52:00,
2013-11-08 07:57:00,52.0,51.4,30.06,East,95,1.0,6.0,98,0.00,,,0.00,meteohub,2013-11-08 15:57:00,
2013-11-08 08:02:00,52.2,51.6,30.06,South,176,1.0,5.0,98,0.00,,,0.00,meteohub,2013-11-08 16:02:00,
2013-11-08 08:07:00,52.3,52.0,30.06,ENE,78,0.0,5.0,99,0.00,,,0.00,meteohub,2013-11-08 16:07:00,
2013-11-08 08:12:00,52.5,52.0,30.06,South,176,2.0,5.0,98,0.00,,,0.00,meteohub,2013-11-08 16:12:00,
2013-11-08 08:17:00,52.3,51.8,30.06,South,176,0.0,5.0,98,0.00,,,0.00,meteohub,2013-11-08 16:17:00,
2013-11-08 08:22:00,52.3,51.8,30.06,South,176,3.0,5.0,98,0.00,,,0.00,meteohub,2013-11-08 16:22:00,
2013-11-08 08:28:00,52.5,52.0,30.06,South,176,2.0,5.0,98,0.00,,,0.00,meteohub,2013-11-08 16:28:00,
2013-11-08 08:33:00,52.5,52.0,30.06,South,176,0.0,5.0,98,0.00,,,0.00,meteohub,2013-11-08 16:33:00,
2013-11-08 08:38:00,52.7,52.2,30.06,ENE,68,0.0,5.0,98,0.00,,,0.00,meteohub,2013-11-08 16:38:00,
2013-11-08 08:43:00,53.1,52.7,30.07,South,176,0.0,5.0,99,0.00,,,0.00,meteohub,2013-11-08 16:43:00,
2013-11-08 08:48:00,53.4,53.1,30.07,ENE,58,0.0,4.0,99,0.00,,,0.00,meteohub,2013-11-08 16:48:00,
2013-11-08 08:53:00,53.6,53.1,30.07,South,176,2.0,3.0,98,0.00,,,0.00,meteohub,2013-11-08 16:53:00,
2013-11-08 08:58:00,54.0,53.6,30.07,East,91,0.0,5.0,99,0.00,,,0.00,meteohub,2013-11-08 16:58:00,
2013-11-08 09:03:00,54.1,53.8,30.07,East,83,0.0,5.0,99,0.00,,,0.00,meteohub,2013-11-08 17:03:00,
2013-11-08 09:08:00,54.7,54.3,30.07,East,79,0.0,5.0,99,0.00,,,0.00,meteohub,2013-11-08 17:08:00,
2013-11-08 09:13:00,55.0,54.7,30.07,East,84,0.0,5.0,99,0.00,,,0.00,meteohub,2013-11-08 17:13:00,
2013-11-08 09:18:00,55.4,55.0,30.07,ENE,71,2.0,5.0,99,0.00,,,0.00,meteohub,2013-11-08 17:18:00,
2013-11-08 09:23:00,55.8,55.4,30.07,East,86,0.0,4.0,99,0.00,,,0.00,meteohub,2013-11-08 17:23:00,
2013-11-08 09:28:00,56.1,55.8,30.07,ENE,72,0.0,3.0,99,0.00,,,0.00,meteohub,2013-11-08 17:28:00,
2013-11-08 09:33:00,56.1,55.8,30.07,East,97,1.0,4.0,99,0.00,,,0.00,meteohub,2013-11-08 17:33:00,
2013-11-08 09:38:00,56.7,56.3,30.07,ESE,102,2.0,4.0,99,0.00,,,0.00,meteohub,2013-11-08 17:38:00,
2013-11-08 09:43:00,57.0,56.7,30.06,East,79,0.0,7.0,99,0.00,,,0.00,meteohub,2013-11-08 17:43:00,
2013-11-08 09:48:00,57.6,57.0,30.06,ENE,74,0.0,7.0,98,0.00,,,0.00,meteohub,2013-11-08 17:48:00,
2013-11-08 09:53:00,57.9,57.4,30.06,East,82,0.0,7.0,98,0.00,,,0.00,meteohub,2013-11-08 17:53:00,
2013-11-08 09:58:00,58.3,57.4,30.06,ENE,67,1.0,4.0,97,0.00,,,0.00,meteohub,2013-11-08 17:58:00,
2013-11-08 10:03:00,59.0,57.9,30.06,SE,133,3.0,5.0,96,0.00,,,0.00,meteohub,2013-11-08 18:03:00,
2013-11-08 10:08:00,59.7,57.7,30.06,ENE,62,2.0,6.0,93,0.00,,,0.00,meteohub,2013-11-08 18:08:00,
2013-11-08 10:13:00,60.4,57.7,30.06,SE,145,4.0,7.0,91,0.00,,,0.00,meteohub,2013-11-08 18:13:00,
2013-11-08 10:18:00,61.0,57.4,30.06,East,100,1.0,7.0,88,0.00,,,0.00,meteohub,2013-11-08 18:18:00,
2013-11-08 10:23:00,61.5,57.4,30.06,East,79,1.0,7.0,86,0.00,,,0.00,meteohub,2013-11-08 18:23:00,
2013-11-08 10:28:00,62.1,57.2,30.06,NE,55,2.0,5.0,84,0.00,,,0.00,meteohub,2013-11-08 18:28:00,
2013-11-08 10:33:00,62.4,56.8,30.06,ENE,74,2.0,5.0,82,0.00,,,0.00,meteohub,2013-11-08 18:33:00,
2013-11-08 10:38:00,62.8,56.1,30.06,ENE,62,1.0,5.0,79,0.00,,,0.00,meteohub,2013-11-08 18:38:00,
2013-11-08 10:43:00,63.1,56.1,30.06,East,80,0.0,5.0,78,0.00,,,0.00,meteohub,2013-11-08 18:43:00,
2013-11-08 10:48:00,63.7,56.3,30.06,ENE,62,0.0,5.0,77,0.00,,,0.00,meteohub,2013-11-08 18:48:00,
2013-11-08 10:53:00,64.2,56.1,30.06,East,95,1.0,4.0,75,0.00,,,0.00,meteohub,2013-11-08 18:53:00,
2013-11-08 10:58:00,64.8,56.3,30.05,East,80,0.0,4.0,74,0.00,,,0.00,meteohub,2013-11-08 18:58:00,
2013-11-08 11:03:00,65.1,56.3,30.05,ENE,62,1.0,4.0,73,0.00,,,0.00,meteohub,2013-11-08 19:03:00,
2013-11-08 11:08:00,65.5,55.0,30.05,NNE,27,3.0,3.0,69,0.00,,,0.00,meteohub,2013-11-08 19:08:00,
2013-11-08 11:13:00,65.5,55.4,30.05,NE,54,0.0,4.0,70,0.00,,,0.00,meteohub,2013-11-08 19:13:00,
2013-11-08 11:18:00,66.0,56.3,30.05,ENE,59,1.0,4.0,71,0.00,,,0.00,meteohub,2013-11-08 19:18:00,
2013-11-08 11:23:00,66.6,56.8,30.05,NNE,29,1.0,3.0,71,0.00,,,0.00,meteohub,2013-11-08 19:23:00,
2013-11-08 11:28:00,66.4,56.7,30.04,NW,313,1.0,2.0,71,0.00,,,0.00,meteohub,2013-11-08 19:28:00,
2013-11-08 11:34:00,65.8,56.1,30.04,NW,306,1.0,3.0,71,0.00,,,0.00,meteohub,2013-11-08 19:34:00,
2013-11-08 11:39:00,65.3,56.1,30.04,NW,309,1.0,3.0,72,0.00,,,0.00,meteohub,2013-11-08 19:39:00,
2013-11-08 11:44:00,64.2,55.4,30.04,WNW,293,1.0,3.0,73,0.00,,,0.00,meteohub,2013-11-08 19:44:00,
2013-11-08 11:49:00,63.1,55.0,30.04,NW,314,3.0,4.0,75,0.00,,,0.00,meteohub,2013-11-08 19:49:00,
2013-11-08 11:54:00,61.5,54.3,30.03,WNW,301,1.0,4.0,77,0.00,,,0.00,meteohub,2013-11-08 19:54:00,
2013-11-08 11:59:00,61.0,54.1,30.03,NW,325,2.0,6.0,78,0.00,,,0.00,meteohub,2013-11-08 19:59:00,
2013-11-08 12:04:00,60.4,54.3,30.03,NW,320,3.0,6.0,80,0.00,,,0.00,meteohub,2013-11-08 20:04:00,
2013-11-08 12:09:00,59.9,53.8,30.03,WNW,299,3.0,5.0,80,0.00,,,0.00,meteohub,2013-11-08 20:09:00,
2013-11-08 12:14:00,59.7,53.6,30.03,NW,312,4.0,6.0,80,0.00,,,0.00,meteohub,2013-11-08 20:14:00,
2013-11-08 12:19:00,59.4,53.6,30.03,WNW,288,1.0,6.0,81,0.00,,,0.00,meteohub,2013-11-08 20:19:00,
2013-11-08 12:24:00,59.2,53.6,30.02,WNW,302,5.0,8.0,82,0.00,,,0.00,meteohub,2013-11-08 20:24:00,
2013-11-08 12:29:00,58.3,53.1,30.02,NW,326,4.0,8.0,83,0.00,,,0.00,meteohub,2013-11-08 20:29:00,
2013-11-08 12:34:00,57.7,53.2,30.02,NW,319,5.0,10.0,85,0.00,,,0.00,meteohub,2013-11-08 20:34:00,
2013-11-08 12:39:00,57.9,53.4,30.02,WNW,286,2.0,10.0,85,0.00,,,0.00,meteohub,2013-11-08 20:39:00,
2013-11-08 12:44:00,58.6,54.5,30.01,WNW,283,1.0,10.0,86,0.00,,,0.00,meteohub,2013-11-08 20:44:00,
2013-11-08 12:49:00,59.4,54.1,30.01,NNW,327,2.0,8.0,83,0.00,,,0.00,meteohub,2013-11-08 20:49:00,
2013-11-08 12:54:00,59.5,54.3,30.01,WNW,296,2.0,8.0,83,0.00,,,0.00,meteohub,2013-11-08 20:54:00,
2013-11-08 12:59:00,59.5,54.0,30.01,NW,320,1.0,7.0,82,0.00,,,0.00,meteohub,2013-11-08 20:59:00,
2013-11-08 13:04:00,59.2,54.0,30.01,NW,306,5.0,7.0,83,0.00,,,0.00,meteohub,2013-11-08 21:04:00,
2013-11-08 13:09:00,59.4,54.5,30.00,WNW,284,2.0,8.0,84,0.00,,,0.00,meteohub,2013-11-08 21:09:00,
2013-11-08 13:14:00,60.1,54.5,30.00,WSW,253,2.0,8.0,82,0.00,,,0.00,meteohub,2013-11-08 21:14:00,
2013-11-08 13:19:00,60.6,54.7,30.00,West,278,1.0,7.0,81,0.00,,,0.00,meteohub,2013-11-08 21:19:00,
2013-11-08 13:24:00,61.5,54.7,30.00,WNW,298,2.0,6.0,78,0.00,,,0.00,meteohub,2013-11-08 21:24:00,
2013-11-08 13:29:00,61.9,54.7,29.99,NNW,336,3.0,7.0,77,0.00,,,0.00,meteohub,2013-11-08 21:29:00,
2013-11-08 13:34:00,62.2,54.9,29.99,WSW,238,1.0,7.0,77,0.00,,,0.00,meteohub,2013-11-08 21:34:00,
2013-11-08 13:39:00,63.0,54.9,29.99,West,263,0.0,9.0,75,0.00,,,0.00,meteohub,2013-11-08 21:39:00,
2013-11-08 13:44:00,63.0,54.5,29.99,West,267,7.0,9.0,74,0.00,,,0.00,meteohub,2013-11-08 21:44:00,
2013-11-08 13:49:00,62.4,54.0,29.99,West,260,5.0,9.0,74,0.00,,,0.00,meteohub,2013-11-08 21:49:00,
2013-11-08 13:54:00,62.4,54.0,29.98,WSW,245,2.0,9.0,74,0.00,,,0.00,meteohub,2013-11-08 21:54:00,
2013-11-08 13:59:00,62.1,53.6,29.98,WNW,284,8.0,9.0,74,0.00,,,0.00,meteohub,2013-11-08 21:59:00,
2013-11-08 14:04:00,61.5,53.6,29.98,SSW,204,4.0,10.0,75,0.00,,,0.00,meteohub,2013-11-08 22:04:00,
2013-11-08 14:09:00,61.5,53.6,29.98,SW,235,7.0,10.0,75,0.00,,,0.00,meteohub,2013-11-08 22:09:00,
2013-11-08 14:14:00,61.3,53.8,29.98,SW,225,6.0,10.0,76,0.00,,,0.00,meteohub,2013-11-08 22:14:00,
2013-11-08 14:19:00,61.3,53.8,29.98,SW,229,10.0,10.0,76,0.00,,,0.00,meteohub,2013-11-08 22:19:00,
2013-11-08 14:24:00,61.5,54.0,29.98,SSW,210,3.0,10.0,76,0.00,,,0.00,meteohub,2013-11-08 22:24:00,
2013-11-08 14:29:00,62.2,54.1,29.98,SW,222,5.0,11.0,75,0.00,,,0.00,meteohub,2013-11-08 22:29:00,
2013-11-08 14:34:00,62.2,53.4,29.98,WSW,258,2.0,11.0,73,0.00,,,0.00,meteohub,2013-11-08 22:34:00,
2013-11-08 14:39:00,62.6,53.8,29.98,SW,235,3.0,11.0,73,0.00,,,0.00,meteohub,2013-11-08 22:39:00,
2013-11-08 14:45:00,62.4,52.9,29.98,WSW,247,7.0,11.0,71,0.00,,,0.00,meteohub,2013-11-08 22:45:00,
2013-11-08 14:50:00,62.2,52.7,29.97,SW,222,6.0,11.0,71,0.00,,,0.00,meteohub,2013-11-08 22:50:00,
2013-11-08 14:55:00,62.4,52.5,29.97,West,271,3.0,11.0,70,0.00,,,0.00,meteohub,2013-11-08 22:55:00,
2013-11-08 15:00:00,62.8,52.5,29.97,WSW,238,5.0,11.0,69,0.00,,,0.00,meteohub,2013-11-08 23:00:00,
2013-11-08 15:05:00,63.0,52.2,29.97,SW,231,7.0,11.0,68,0.00,,,0.00,meteohub,2013-11-08 23:05:00,
2013-11-08 15:10:00,63.1,52.0,29.97,East,88,0.0,10.0,67,0.00,,,0.00,meteohub,2013-11-08 23:10:00,
2013-11-08 15:15:00,63.3,51.8,29.97,WSW,250,5.0,10.0,66,0.00,,,0.00,meteohub,2013-11-08 23:15:00,
2013-11-08 15:20:00,63.1,51.6,29.97,SW,220,6.0,9.0,66,0.00,,,0.00,meteohub,2013-11-08 23:20:00,
2013-11-08 15:25:00,62.6,51.1,29.97,WSW,237,5.0,9.0,66,0.00,,,0.00,meteohub,2013-11-08 23:25:00,
2013-11-08 15:30:00,62.4,50.9,29.97,West,279,4.0,9.0,66,0.00,,,0.00,meteohub,2013-11-08 23:30:00,
2013-11-08 15:35:00,62.2,50.7,29.97,WSW,258,8.0,9.0,66,0.00,,,0.00,meteohub,2013-11-08 23:35:00,
2013-11-08 15:40:00,62.6,50.7,29.97,West,263,9.0,9.0,65,0.00,,,0.00,meteohub,2013-11-08 23:40:00,
2013-11-08 15:45:00,62.4,50.5,29.97,West,264,2.0,10.0,65,0.00,,,0.00,meteohub,2013-11-08 23:45:00,
2013-11-08 15:50:00,61.9,50.4,29.97,NW,308,1.0,10.0,66,0.00,,,0.00,meteohub,2013-11-08 23:50:00,
2013-11-08 15:55:00,61.3,50.4,29.97,SW,236,1.0,10.0,67,0.00,,,0.00,meteohub,2013-11-08 23:55:00,
2013-11-08 16:00:00,61.0,50.4,29.97,NW,310,1.0,9.0,68,0.00,,,0.00,meteohub,2013-11-09 00:00:00,
2013-11-08 16:05:00,60.6,50.4,29.96,WSW,244,2.0,10.0,69,0.00,,,0.00,meteohub,2013-11-09 00:05:00,
2013-11-08 16:10:00,60.4,50.5,29.96,WNW,287,3.0,10.0,70,0.00,,,0.00,meteohub,2013-11-09 00:10:00,
2013-11-08 16:15:00,60.3,50.4,29.96,West,274,2.0,10.0,70,0.00,,,0.00,meteohub,2013-11-09 00:15:00,
2013-11-08 16:20:00,60.1,50.7,29.96,NW,308,3.0,9.0,71,0.00,,,0.00,meteohub,2013-11-09 00:20:00,
2013-11-08 16:25:00,59.5,50.5,29.96,North,5,3.0,9.0,72,0.00,,,0.00,meteohub,2013-11-09 00:25:00,
2013-11-08 16:30:00,59.4,50.4,29.96,NNE,25,1.0,8.0,72,0.00,,,0.00,meteohub,2013-11-09 00:30:00,
2013-11-08 16:35:00,59.2,50.2,29.96,West,262,1.0,8.0,72,0.00,,,0.00,meteohub,2013-11-09 00:35:00,
2013-11-08 16:40:00,59.2,50.2,29.96,WNW,283,2.0,8.0,72,0.00,,,0.00,meteohub,2013-11-09 00:40:00,
2013-11-08 16:45:00,58.8,50.2,29.96,WNW,295,3.0,8.0,73,0.00,,,0.00,meteohub,2013-11-09 00:45:00,
2013-11-08 16:50:00,58.3,50.4,29.96,WNW,297,1.0,11.0,75,0.00,,,0.00,meteohub,2013-11-09 00:50:00,
2013-11-08 16:55:00,57.7,50.2,29.96,WNW,300,2.0,11.0,76,0.00,,,0.00,meteohub,2013-11-09 00:55:00,
2013-11-08 17:00:00,57.4,50.2,29.96,WNW,295,7.0,11.0,77,0.00,,,0.00,meteohub,2013-11-09 01:00:00,
2013-11-08 17:05:00,57.2,50.4,29.96,SW,229,0.0,9.0,78,0.00,,,0.00,meteohub,2013-11-09 01:05:00,
2013-11-08 17:10:00,57.0,50.2,29.96,WSW,248,3.0,9.0,78,0.00,,,0.00,meteohub,2013-11-09 01:10:00,
2013-11-08 17:15:00,56.8,50.4,29.96,WSW,258,1.0,7.0,79,0.00,,,0.00,meteohub,2013-11-09 01:15:00,
2013-11-08 17:20:00,56.7,50.2,29.96,WNW,283,0.0,7.0,79,0.00,,,0.00,meteohub,2013-11-09 01:20:00,
2013-11-08 17:25:00,56.5,50.0,29.96,WNW,297,0.0,7.0,79,0.00,,,0.00,meteohub,2013-11-09 01:25:00,
2013-11-08 17:30:00,56.5,50.0,29.96,WNW,302,1.0,7.0,79,0.00,,,0.00,meteohub,2013-11-09 01:30:00,
2013-11-08 17:35:00,56.1,50.0,29.96,NNW,348,2.0,6.0,80,0.00,,,0.00,meteohub,2013-11-09 01:35:00,
2013-11-08 17:40:00,56.1,50.0,29.96,NW,306,0.0,3.0,80,0.00,,,0.00,meteohub,2013-11-09 01:40:00,
2013-11-08 17:45:00,55.9,50.2,29.96,SW,220,0.0,3.0,81,0.00,,,0.00,meteohub,2013-11-09 01:45:00,
2013-11-08 17:50:00,55.9,50.2,29.96,SSE,153,0.0,3.0,81,0.00,,,0.00,meteohub,2013-11-09 01:50:00,
2013-11-08 17:55:00,55.8,50.0,29.96,South,191,1.0,5.0,81,0.00,,,0.00,meteohub,2013-11-09 01:55:00,
2013-11-08 18:00:00,55.8,50.4,29.96,West,259,1.0,5.0,82,0.00,,,0.00,meteohub,2013-11-09 02:00:00,
2013-11-08 18:05:00,55.6,50.2,29.96,WSW,254,2.0,5.0,82,0.00,,,0.00,meteohub,2013-11-09 02:05:00,
2013-11-08 18:10:00,55.6,50.5,29.97,WSW,255,1.0,5.0,83,0.00,,,0.00,meteohub,2013-11-09 02:10:00,
2013-11-08 18:16:00,55.4,50.4,29.97,WNW,296,1.0,8.0,83,0.00,,,0.00,meteohub,2013-11-09 02:16:00,
2013-11-08 18:21:00,55.2,50.5,29.97,WNW,293,0.0,8.0,84,0.00,,,0.00,meteohub,2013-11-09 02:21:00,
2013-11-08 18:26:00,55.2,50.5,29.97,WSW,257,6.0,8.0,84,0.00,,,0.00,meteohub,2013-11-09 02:26:00,
2013-11-08 18:31:00,55.0,50.4,29.97,WNW,284,3.0,7.0,84,0.00,,,0.00,meteohub,2013-11-09 02:31:00,
2013-11-08 18:36:00,54.9,50.4,29.97,WNW,295,0.0,7.0,85,0.00,,,0.00,meteohub,2013-11-09 02:36:00,
2013-11-08 18:41:00,54.9,50.4,29.97,West,259,2.0,10.0,85,0.00,,,0.00,meteohub,2013-11-09 02:41:00,
2013-11-08 18:46:00,54.9,50.4,29.97,West,259,5.0,11.0,85,0.00,,,0.00,meteohub,2013-11-09 02:46:00,
2013-11-08 18:51:00,54.9,50.7,29.97,NW,316,3.0,11.0,86,0.00,,,0.00,meteohub,2013-11-09 02:51:00,
2013-11-08 18:56:00,54.7,50.5,29.97,WSW,252,5.0,10.0,86,0.00,,,0.00,meteohub,2013-11-09 02:56:00,
2013-11-08 19:01:00,54.7,50.5,29.97,West,262,3.0,10.0,86,0.00,,,0.00,meteohub,2013-11-09 03:01:00,
2013-11-08 19:06:00,54.5,50.7,29.97,NNW,334,2.0,12.0,87,0.00,,,0.00,meteohub,2013-11-09 03:06:00,
2013-11-08 19:11:00,54.5,51.1,29.97,West,265,5.0,12.0,88,0.00,,,0.00,meteohub,2013-11-09 03:11:00,
2013-11-08 19:16:00,54.3,50.9,29.97,WSW,239,4.0,8.0,88,0.00,,,0.00,meteohub,2013-11-09 03:16:00,
2013-11-08 19:21:00,54.3,50.9,29.97,WSW,257,5.0,8.0,88,0.00,,,0.00,meteohub,2013-11-09 03:21:00,
2013-11-08 19:26:00,54.1,50.7,29.97,West,260,3.0,9.0,88,0.00,,,0.00,meteohub,2013-11-09 03:26:00,
2013-11-08 19:31:00,54.1,50.9,29.97,West,281,2.0,9.0,89,0.00,,,0.00,meteohub,2013-11-09 03:31:00,
2013-11-08 19:36:00,54.1,50.9,29.97,WSW,249,1.0,9.0,89,0.00,,,0.00,meteohub,2013-11-09 03:36:00,
2013-11-08 19:41:00,54.1,50.9,29.96,WSW,253,1.0,9.0,89,0.00,,,0.00,meteohub,2013-11-09 03:41:00,
2013-11-08 19:46:00,54.1,50.9,29.97,WSW,238,2.0,9.0,89,0.00,,,0.00,meteohub,2013-11-09 03:46:00,
2013-11-08 19:51:00,54.1,50.9,29.97,West,262,0.0,9.0,89,0.00,,,0.00,meteohub,2013-11-09 03:51:00,
2013-11-08 19:56:00,54.1,50.9,29.96,SW,230,1.0,9.0,89,0.00,,,0.00,meteohub,2013-11-09 03:56:00,
2013-11-08 20:01:00,54.1,51.3,29.97,WSW,256,3.0,9.0,90,0.00,,,0.00,meteohub,2013-11-09 04:01:00,
2013-11-08 20:06:00,54.0,51.1,29.97,SW,234,4.0,6.0,90,0.00,,,0.00,meteohub,2013-11-09 04:06:00,
2013-11-08 20:11:00,54.0,51.1,29.97,WSW,250,1.0,8.0,90,0.00,,,0.00,meteohub,2013-11-09 04:11:00,
2013-11-08 20:16:00,54.0,51.1,29.97,WSW,242,4.0,8.0,90,0.00,,,0.00,meteohub,2013-11-09 04:16:00,
2013-11-08 20:21:00,54.0,51.1,29.97,WSW,256,1.0,7.0,90,0.00,,,0.00,meteohub,2013-11-09 04:21:00,
2013-11-08 20:26:00,53.8,50.9,29.97,West,264,5.0,7.0,90,0.00,,,0.00,meteohub,2013-11-09 04:26:00,
2013-11-08 20:31:00,53.8,51.3,29.97,SW,222,2.0,8.0,91,0.00,,,0.00,meteohub,2013-11-09 04:31:00,
2013-11-08 20:36:00,53.8,51.3,29.97,SW,235,0.0,8.0,91,0.00,,,0.00,meteohub,2013-11-09 04:36:00,
2013-11-08 20:41:00,53.8,51.3,29.97,West,265,0.0,7.0,91,0.00,,,0.00,meteohub,2013-11-09 04:41:00,
2013-11-08 20:46:00,53.8,51.3,29.98,West,264,0.0,7.0,91,0.00,,,0.00,meteohub,2013-11-09 04:46:00,
2013-11-08 20:51:00,53.8,51.3,29.98,SW,222,2.0,6.0,91,0.00,,,0.00,meteohub,2013-11-09 04:51:00,
2013-11-08 20:56:00,53.8,51.3,29.98,West,271,2.0,6.0,91,0.00,,,0.00,meteohub,2013-11-09 04:56:00,
2013-11-08 21:01:00,53.8,51.3,29.98,WSW,258,8.0,8.0,91,0.00,,,0.00,meteohub,2013-11-09 05:01:00,
2013-11-08 21:02:00,53.6,51.1,29.98,West,271,3.0,6.0,91,0.00,,,0.00,meteohub,2013-11-09 05:02:00,
2013-11-08 21:03:00,53.6,51.1,29.98,West,281,0.0,6.0,91,0.00,,,0.00,meteohub,2013-11-09 05:03:00,
2013-11-08 21:04:00,53.6,51.1,29.99,West,266,6.0,6.0,91,0.00,,,0.00,meteohub,2013-11-09 05:04:00,
2013-11-08 21:09:00,53.6,51.1,29.99,West,274,2.0,8.0,91,0.00,,,0.00,meteohub,2013-11-09 05:09:00,
2013-11-08 21:14:00,53.4,50.9,29.99,West,262,3.0,9.0,91,0.00,,,0.00,meteohub,2013-11-09 05:14:00,
2013-11-08 21:19:00,53.4,50.9,29.99,West,278,2.0,9.0,91,0.00,,,0.00,meteohub,2013-11-09 05:19:00,
2013-11-08 21:24:00,53.4,50.9,29.99,SSW,208,5.0,9.0,91,0.00,,,0.00,meteohub,2013-11-09 05:24:00,
2013-11-08 21:29:00,53.2,50.7,29.99,WSW,258,2.0,7.0,91,0.00,,,0.00,meteohub,2013-11-09 05:29:00,
2013-11-08 21:35:00,53.2,50.7,29.99,WSW,247,2.0,7.0,91,0.00,,,0.00,meteohub,2013-11-09 05:35:00,
2013-11-08 21:40:00,53.2,50.7,29.99,SW,231,3.0,7.0,91,0.00,,,0.00,meteohub,2013-11-09 05:40:00,
2013-11-08 21:45:00,53.2,50.7,29.99,SW,221,2.0,5.0,91,0.00,,,0.00,meteohub,2013-11-09 05:45:00,
2013-11-08 21:50:00,53.2,50.7,29.99,SSW,195,1.0,5.0,91,0.00,,,0.00,meteohub,2013-11-09 05:50:00,
2013-11-08 21:55:00,53.1,50.5,29.99,SSW,202,0.0,5.0,91,0.00,,,0.00,meteohub,2013-11-09 05:55:00,
2013-11-08 22:00:00,53.1,50.5,29.99,SW,223,0.0,2.0,91,0.00,,,0.00,meteohub,2013-11-09 06:00:00,
2013-11-08 22:05:00,53.1,50.7,29.99,SSW,210,0.0,3.0,92,0.00,,,0.00,meteohub,2013-11-09 06:05:00,
2013-11-08 22:10:00,52.9,50.5,29.99,SW,217,2.0,3.0,92,0.00,,,0.00,meteohub,2013-11-09 06:10:00,
2013-11-08 22:15:00,53.1,50.7,29.99,SW,216,0.0,3.0,92,0.00,,,0.00,meteohub,2013-11-09 06:15:00,
2013-11-08 22:20:00,53.1,50.7,29.99,SW,225,0.0,3.0,92,0.00,,,0.00,meteohub,2013-11-09 06:20:00,
2013-11-08 22:25:00,53.1,50.7,29.99,SW,235,3.0,3.0,92,0.00,,,0.00,meteohub,2013-11-09 06:25:00,
2013-11-08 22:30:00,53.1,50.7,29.99,WSW,238,0.0,3.0,92,0.00,,,0.00,meteohub,2013-11-09 06:30:00,
2013-11-08 22:35:00,53.1,50.7,29.99,WSW,251,0.0,4.0,92,0.00,,,0.00,meteohub,2013-11-09 06:35:00,
2013-11-08 22:40:00,53.1,50.7,29.99,SW,232,2.0,4.0,92,0.00,,,0.00,meteohub,2013-11-09 06:40:00,
2013-11-08 22:45:00,53.1,50.7,29.99,West,277,3.0,5.0,92,0.00,,,0.00,meteohub,2013-11-09 06:45:00,
2013-11-08 22:50:00,53.1,50.7,29.99,SW,236,3.0,6.0,92,0.00,,,0.00,meteohub,2013-11-09 06:50:00,
2013-11-08 22:55:00,53.1,50.7,29.99,WSW,237,7.0,8.0,92,0.00,,,0.00,meteohub,2013-11-09 06:55:00,
2013-11-08 23:00:00,53.1,50.7,29.98,South,176,0.0,9.0,92,0.00,,,0.00,meteohub,2013-11-09 07:00:00,
2013-11-08 23:05:00,53.1,50.7,29.98,WSW,247,2.0,9.0,92,0.00,,,0.00,meteohub,2013-11-09 07:05:00,
2013-11-08 23:10:00,53.1,50.7,29.98,SW,222,1.0,9.0,92,0.00,,,0.00,meteohub,2013-11-09 07:10:00,
2013-11-08 23:15:00,53.1,50.7,29.99,SW,235,4.0,8.0,92,0.00,,,0.00,meteohub,2013-11-09 07:15:00,
2013-11-08 23:20:00,53.1,50.7,29.99,SW,233,1.0,9.0,92,0.00,,,0.00,meteohub,2013-11-09 07:20:00,
2013-11-08 23:25:00,53.1,50.7,29.99,SW,220,3.0,9.0,92,0.00,,,0.00,meteohub,2013-11-09 07:25:00,
2013-11-08 23:30:00,53.1,50.7,29.99,SW,231,4.0,9.0,92,0.00,,,0.00,meteohub,2013-11-09 07:30:00,
2013-11-08 23:35:00,52.9,50.5,29.99,WSW,256,2.0,7.0,92,0.00,,,0.00,meteohub,2013-11-09 07:35:00,
2013-11-08 23:40:00,52.9,50.5,29.99,WSW,254,2.0,8.0,92,0.00,,,0.00,meteohub,2013-11-09 07:40:00,
2013-11-08 23:45:00,52.7,50.4,29.99,SW,235,3.0,8.0,92,0.00,,,0.00,meteohub,2013-11-09 07:45:00,
2013-11-08 23:50:00,52.9,50.5,29.98,SSE,156,1.0,7.0,92,0.00,,,0.00,meteohub,2013-11-09 07:50:00,
2013-11-08 23:55:00,52.7,50.4,29.98,SW,229,4.0,7.0,92,0.00,,,0.00,meteohub,2013-11-09 07:55:00,